Time;durP1;ratioP1;P1;durP2;ratioP2;P2;SDS_P1;SDS_P2;PMS_P1;PMS_P2;Temp;Humidity;BMP_temperature;BMP_pressure;BME280_temperature;BME280_humidity;BME280_pressure;Samples;Min_cycle;Max_cycle;Signal;HPM_P1;HPM_P2
2023/02/15 00:01:57;;;;;;;;;;;27.20;99.90;;;;;;5063840;28;20408;-70
2023/02/15 00:04:24;;;;;;;;;;;27.60;99.00;;;;;;5064383;28;19908;-69
2023/02/15 00:06:50;;;;;;;;;;;27.70;98.70;;;;;;5062782;28;19952;-64
2023/02/15 00:09:20;;;;;;;;;;;28.20;99.90;;;;;;5062098;28;20435;-69
2023/02/15 00:11:52;;;;;;;;;;;28.20;99.20;;;;;;5063603;28;19916;-69
2023/02/15 00:14:18;;;;;;;;;;;27.70;99.10;;;;;;5056829;28;20175;-70
2023/02/15 00:16:45;;;;;;;;;;;27.50;99.70;;;;;;5062006;28;19916;-68
2023/02/15 00:19:12;;;;;;;;;;;27.80;99.50;;;;;;5062056;28;19912;-64
2023/02/15 00:21:39;;;;;;;;;;;27.80;98.80;;;;;;5043531;28;20447;-69
2023/02/15 00:24:06;;;;;;;;;;;28.00;98.60;;;;;;5058110;28;19916;-63
2023/02/15 00:26:33;;;;;;;;;;;27.80;99.00;;;;;;5058960;28;19956;-69
2023/02/15 00:28:59;;;;;;;;;;;27.70;99.50;;;;;;5063783;28;19908;-64
2023/02/15 00:31:27;;;;;;;;;;;28.10;98.70;;;;;;5065712;28;19912;-68
2023/02/15 00:33:53;;;;;;;;;;;28.40;98.30;;;;;;5059811;28;19966;-64
2023/02/15 00:36:20;;;;;;;;;;;28.80;98.00;;;;;;5059819;28;20205;-67
2023/02/15 00:38:46;;;;;;;;;;;29.20;97.60;;;;;;5065970;28;19912;-68
2023/02/15 00:41:12;;;;;;;;;;;29.60;96.90;;;;;;5059332;28;19920;-68
2023/02/15 00:43:39;;;;;;;;;;;29.80;96.30;;;;;;5058351;28;19999;-67
2023/02/15 00:46:05;;;;;;;;;;;29.70;96.10;;;;;;5061875;28;20360;-64
2023/02/15 00:48:32;;;;;;;;;;;29.00;96.50;;;;;;5064601;28;20372;-63
2023/02/15 00:50:59;;;;;;;;;;;28.50;97.20;;;;;;5059848;28;19921;-68
2023/02/15 00:53:26;;;;;;;;;;;28.10;97.90;;;;;;5063755;28;19919;-63
2023/02/15 00:55:53;;;;;;;;;;;27.70;98.10;;;;;;5062403;28;19912;-69
2023/02/15 00:58:20;;;;;;;;;;;27.80;97.90;;;;;;5064535;28;19916;-64
2023/02/15 01:00:47;;;;;;;;;;;28.10;97.90;;;;;;5061349;28;19909;-64
2023/02/15 01:03:14;;;;;;;;;;;28.70;97.90;;;;;;5043286;28;20027;-67
2023/02/15 01:05:41;;;;;;;;;;;29.40;96.90;;;;;;5064014;28;20007;-68
2023/02/15 01:08:07;;;;;;;;;;;29.60;95.60;;;;;;5062960;28;19916;-64
2023/02/15 01:10:34;;;;;;;;;;;29.70;95.80;;;;;;5056518;28;19954;-68
2023/02/15 01:13:01;;;;;;;;;;;29.90;95.40;;;;;;5061952;28;19923;-65
2023/02/15 01:15:27;;;;;;;;;;;30.30;94.70;;;;;;5063955;28;20019;-70
2023/02/15 01:17:54;;;;;;;;;;;30.00;95.00;;;;;;5065473;28;19934;-64
2023/02/15 01:20:21;;;;;;;;;;;29.40;95.00;;;;;;5058213;28;19917;-67
2023/02/15 01:22:49;;;;;;;;;;;29.80;94.50;;;;;;5041616;28;19908;-68
2023/02/15 01:25:16;;;;;;;;;;;30.10;94.70;;;;;;5064270;28;20286;-69
2023/02/15 01:27:43;;;;;;;;;;;30.10;94.80;;;;;;5064923;28;19916;-69
2023/02/15 01:30:10;;;;;;;;;;;30.70;93.10;;;;;;5060469;28;19908;-69
2023/02/15 01:32:36;;;;;;;;;;;31.00;94.30;;;;;;5063169;28;19916;-69
2023/02/15 01:35:03;;;;;;;;;;;30.70;94.00;;;;;;5064752;28;19916;-64
2023/02/15 01:37:33;;;;;;;;;;;29.90;94.10;;;;;;5058931;28;19916;-64
2023/02/15 01:40:00;;;;;;;;;;;29.40;94.50;;;;;;5060744;28;19912;-69
2023/02/15 01:42:27;;;;;;;;;;;29.20;94.10;;;;;;5060088;28;19912;-65
2023/02/15 01:44:58;;;;;;;;;;;29.20;95.00;;;;;;5063157;28;19955;-64
2023/02/15 01:47:39;;;;;;;;;;;29.90;95.40;;;;;;5060904;28;19924;-69
2023/02/15 01:50:09;;;;;;;;;;;30.50;94.00;;;;;;5063768;28;19923;-67
2023/02/15 01:52:37;;;;;;;;;;;30.70;93.30;;;;;;5045480;28;19912;-68
2023/02/15 01:55:04;;;;;;;;;;;31.20;94.40;;;;;;5063416;28;19943;-65
2023/02/15 01:57:31;;;;;;;;;;;31.50;93.10;;;;;;5058569;28;19919;-69
2023/02/15 01:59:59;;;;;;;;;;;31.70;93.00;;;;;;5055288;28;19920;-64
2023/02/15 02:02:25;;;;;;;;;;;32.00;92.70;;;;;;5041649;28;19920;-69
2023/02/15 02:04:53;;;;;;;;;;;32.20;92.20;;;;;;5060823;28;19919;-64
2023/02/15 02:07:24;;;;;;;;;;;32.40;92.60;;;;;;5057574;28;19912;-69
2023/02/15 02:09:50;;;;;;;;;;;32.50;91.60;;;;;;5061798;28;19909;-64
2023/02/15 02:12:17;;;;;;;;;;;32.60;91.90;;;;;;5063232;28;19931;-63
2023/02/15 02:14:45;;;;;;;;;;;32.80;90.50;;;;;;5064080;28;20458;-64
2023/02/15 02:17:22;;;;;;;;;;;32.50;90.90;;;;;;5057188;28;19916;-68
2023/02/15 02:19:51;;;;;;;;;;;32.90;90.40;;;;;;5059182;28;19908;-68
2023/02/15 02:22:33;;;;;;;;;;;33.20;91.10;;;;;;5059790;28;19908;-63
2023/02/15 02:25:02;;;;;;;;;;;33.40;90.50;;;;;;5039894;28;19916;-64
2023/02/15 02:27:39;;;;;;;;;;;33.40;89.10;;;;;;5062018;28;20250;-68
2023/02/15 02:30:34;;;;;;;;;;;33.30;90.90;;;;;;5061822;28;20013;-67
2023/02/15 02:33:00;;;;;;;;;;;33.70;90.80;;;;;;5059488;28;20392;-69
2023/02/15 02:35:44;;;;;;;;;;;34.10;88.50;;;;;;5059979;28;20328;-68
2023/02/15 02:38:20;;;;;;;;;;;34.20;86.60;;;;;;5056474;28;19974;-69
2023/02/15 02:41:01;;;;;;;;;;;33.90;88.10;;;;;;5063186;28;19923;-67
2023/02/15 02:43:36;;;;;;;;;;;33.40;87.70;;;;;;5059520;28;19977;-64
2023/02/15 02:46:02;;;;;;;;;;;32.80;88.90;;;;;;5060952;28;20368;-69
2023/02/15 02:48:32;;;;;;;;;;;31.80;89.30;;;;;;5061674;28;20402;-64
2023/02/15 02:50:58;;;;;;;;;;;31.60;90.50;;;;;;5060513;28;19999;-67
2023/02/15 02:53:25;;;;;;;;;;;31.10;91.10;;;;;;5060818;28;20163;-63
2023/02/15 02:55:57;;;;;;;;;;;31.40;91.20;;;;;;5060450;28;19938;-67
2023/02/15 02:58:26;;;;;;;;;;;32.00;91.30;;;;;;5042386;28;20297;-68
2023/02/15 03:00:55;;;;;;;;;;;31.60;90.50;;;;;;5041578;28;19908;-68
2023/02/15 03:03:21;;;;;;;;;;;31.00;90.90;;;;;;5060973;28;20368;-64
2023/02/15 03:05:48;;;;;;;;;;;30.80;90.60;;;;;;5043262;28;19909;-67
2023/02/15 03:08:21;;;;;;;;;;;30.80;90.70;;;;;;5060956;28;19908;-63
2023/02/15 03:10:53;;;;;;;;;;;30.50;90.90;;;;;;5043131;28;19916;-68
2023/02/15 03:13:20;;;;;;;;;;;30.30;91.80;;;;;;5060716;28;19931;-63
2023/02/15 03:18:57;;;;;;;;;;;29.90;91.90;;;;;;5062093;28;19920;-64
2023/02/15 03:21:36;;;;;;;;;;;29.80;92.20;;;;;;5060529;28;19939;-67
2023/02/15 03:24:10;;;;;;;;;;;29.70;91.80;;;;;;5062088;28;19958;-68
2023/02/15 03:26:38;;;;;;;;;;;29.50;92.40;;;;;;5061618;28;20280;-63
2023/02/15 03:29:05;;;;;;;;;;;29.50;93.50;;;;;;5063715;28;19966;-64
2023/02/15 03:31:33;;;;;;;;;;;29.50;92.90;;;;;;5063011;28;19999;-68
2023/02/15 03:34:01;;;;;;;;;;;29.20;93.30;;;;;;5059868;28;19909;-69
2023/02/15 03:36:30;;;;;;;;;;;29.50;92.30;;;;;;5062136;28;19916;-64
2023/02/15 03:39:05;;;;;;;;;;;29.70;92.00;;;;;;5061926;28;20014;-68
2023/02/15 03:41:34;;;;;;;;;;;30.30;92.20;;;;;;5063784;28;20008;-69
2023/02/15 03:44:05;;;;;;;;;;;30.60;92.30;;;;;;5058411;28;19916;-64
2023/02/15 03:46:33;;;;;;;;;;;31.60;91.20;;;;;;5057505;28;20347;-69
2023/02/15 03:49:11;;;;;;;;;;;32.30;90.00;;;;;;5059406;28;19908;-69
2023/02/15 03:51:39;;;;;;;;;;;32.80;90.50;;;;;;5061424;28;19935;-64
2023/02/15 03:54:08;;;;;;;;;;;33.50;90.70;;;;;;5061504;28;20358;-69
2023/02/15 03:56:36;;;;;;;;;;;34.00;90.10;;;;;;5059328;28;19912;-64
2023/02/15 04:01:57;;;;;;;;;;;33.90;88.10;;;;;;5060625;28;20002;-64
2023/02/15 04:04:26;;;;;;;;;;;34.00;87.40;;;;;;5064809;28;20456;-64
2023/02/15 04:06:52;;;;;;;;;;;34.40;88.60;;;;;;5060534;28;20457;-63
2023/02/15 04:12:03;;;;;;;;;;;35.30;86.90;;;;;;5066163;28;20121;-69
2023/02/15 04:17:14;;;;;;;;;;;35.30;84.90;;;;;;5065013;28;19935;-65
2023/02/15 04:25:13;;;;;;;;;;;35.30;81.90;;;;;;5064435;28;19919;-64
2023/02/15 04:27:40;;;;;;;;;;;34.50;85.00;;;;;;5065981;28;20027;-65
2023/02/15 04:30:07;;;;;;;;;;;34.40;86.50;;;;;;5065096;28;20277;-64
2023/02/15 04:32:34;;;;;;;;;;;33.70;87.70;;;;;;5065670;28;19954;-66
2023/02/15 04:35:00;;;;;;;;;;;33.60;88.50;;;;;;5064375;28;19959;-65
2023/02/15 04:37:27;;;;;;;;;;;33.10;89.80;;;;;;5065445;28;20372;-67
2023/02/15 04:39:53;;;;;;;;;;;32.80;89.90;;;;;;5066265;28;19913;-69
2023/02/15 04:42:19;;;;;;;;;;;32.90;90.10;;;;;;5060252;28;20356;-69
2023/02/15 04:44:46;;;;;;;;;;;32.90;88.70;;;;;;5064068;28;19916;-69
2023/02/15 04:47:12;;;;;;;;;;;33.30;87.70;;;;;;5064674;28;20007;-68
2023/02/15 04:49:39;;;;;;;;;;;33.50;86.90;;;;;;5058895;28;19908;-70
2023/02/15 04:52:05;;;;;;;;;;;33.10;87.20;;;;;;5063368;28;19965;-67
2023/02/15 04:54:31;;;;;;;;;;;33.30;88.90;;;;;;5046253;28;19912;-68
2023/02/15 04:56:58;;;;;;;;;;;33.60;86.50;;;;;;5065701;28;19909;-67
2023/02/15 04:59:24;;;;;;;;;;;33.80;85.70;;;;;;5058412;28;20367;-68
2023/02/15 05:01:50;;;;;;;;;;;33.90;85.90;;;;;;5062729;28;19916;-70
2023/02/15 05:04:17;;;;;;;;;;;33.80;87.10;;;;;;5064729;28;20437;-70
2023/02/15 05:06:43;;;;;;;;;;;33.30;89.40;;;;;;5059976;28;20010;-69
2023/02/15 05:09:11;;;;;;;;;;;32.70;90.10;;;;;;5061025;28;19908;-65
2023/02/15 05:11:37;;;;;;;;;;;32.80;90.90;;;;;;5061181;28;19908;-65
2023/02/15 05:14:04;;;;;;;;;;;33.20;88.70;;;;;;5065775;28;19912;-67
2023/02/15 05:16:33;;;;;;;;;;;33.30;90.70;;;;;;5061975;28;20280;-65
2023/02/15 05:18:59;;;;;;;;;;;33.60;90.30;;;;;;5059312;28;19911;-65
2023/02/15 05:21:26;;;;;;;;;;;34.10;90.00;;;;;;5058933;28;20055;-65
2023/02/15 05:23:52;;;;;;;;;;;34.40;90.30;;;;;;5061484;28;19913;-70
2023/02/15 05:29:05;;;;;;;;;;;34.70;88.10;;;;;;5062646;28;19923;-67
2023/02/15 05:31:31;;;;;;;;;;;34.50;89.20;;;;;;5062025;28;19916;-67
2023/02/15 05:33:58;;;;;;;;;;;34.60;87.70;;;;;;5043719;28;20509;-67
2023/02/15 05:36:24;;;;;;;;;;;33.90;88.80;;;;;;5058813;28;20301;-66
2023/02/15 05:38:50;;;;;;;;;;;33.30;90.00;;;;;;5059673;28;19909;-69
2023/02/15 05:41:17;;;;;;;;;;;32.90;90.00;;;;;;5055326;28;20007;-68
2023/02/15 05:43:43;;;;;;;;;;;32.20;90.60;;;;;;5060931;28;19924;-70
2023/02/15 05:46:10;;;;;;;;;;;31.70;91.10;;;;;;5040470;28;19920;-69
2023/02/15 05:48:36;;;;;;;;;;;32.30;91.40;;;;;;5056821;28;20326;-63
2023/02/15 05:51:04;;;;;;;;;;;33.10;90.50;;;;;;5063921;28;19912;-68
2023/02/15 05:53:32;;;;;;;;;;;33.30;90.70;;;;;;5063122;28;20011;-68
2023/02/15 05:55:59;;;;;;;;;;;33.20;89.10;;;;;;5062481;28;19912;-67
2023/02/15 05:58:26;;;;;;;;;;;32.40;90.40;;;;;;5058223;28;19927;-69
2023/02/15 06:00:53;;;;;;;;;;;32.30;90.20;;;;;;5062803;28;19912;-69
2023/02/15 06:03:19;;;;;;;;;;;31.90;91.00;;;;;;5061111;28;19972;-69
2023/02/15 06:05:46;;;;;;;;;;;31.60;90.60;;;;;;5060568;28;19912;-64
2023/02/15 06:08:12;;;;;;;;;;;31.20;91.10;;;;;;5059759;28;19920;-64
2023/02/15 06:10:39;;;;;;;;;;;31.50;91.80;;;;;;5063460;28;19919;-63
2023/02/15 06:13:06;;;;;;;;;;;31.50;91.10;;;;;;5054144;28;20333;-68
2023/02/15 06:15:32;;;;;;;;;;;31.40;91.20;;;;;;5060941;28;19988;-69
2023/02/15 06:17:59;;;;;;;;;;;31.40;91.70;;;;;;5059566;28;20384;-68
2023/02/15 06:20:25;;;;;;;;;;;31.90;91.50;;;;;;5059788;28;19923;-68
2023/02/15 06:22:52;;;;;;;;;;;32.40;91.10;;;;;;5039685;28;19922;-68
2023/02/15 06:25:18;;;;;;;;;;;32.80;90.70;;;;;;5057061;28;19916;-68
2023/02/15 06:27:45;;;;;;;;;;;32.80;90.50;;;;;;5059172;28;19947;-68
2023/02/15 06:30:11;;;;;;;;;;;33.00;90.50;;;;;;5060516;28;19924;-65
2023/02/15 06:32:38;;;;;;;;;;;33.40;90.50;;;;;;5060606;28;19964;-63
2023/02/15 06:35:04;;;;;;;;;;;33.40;89.20;;;;;;5061576;28;19916;-62
2023/02/15 06:37:31;;;;;;;;;;;33.60;90.50;;;;;;5059526;28;19912;-63
2023/02/15 06:39:57;;;;;;;;;;;33.70;90.20;;;;;;5061156;28;20303;-62
2023/02/15 06:42:23;;;;;;;;;;;33.60;89.50;;;;;;5052163;28;20206;-65
2023/02/15 06:44:50;;;;;;;;;;;33.50;89.30;;;;;;5060800;28;19919;-63
2023/02/15 06:47:17;;;;;;;;;;;32.70;90.40;;;;;;5062167;28;19916;-62
2023/02/15 06:49:43;;;;;;;;;;;31.60;90.80;;;;;;5055855;28;19908;-65
2023/02/15 06:52:09;;;;;;;;;;;30.70;91.10;;;;;;5058128;28;19912;-68
2023/02/15 06:54:36;;;;;;;;;;;30.10;91.80;;;;;;5058935;28;20277;-70
2023/02/15 06:57:02;;;;;;;;;;;29.80;92.60;;;;;;5061106;28;20586;-63
2023/02/15 06:59:29;;;;;;;;;;;29.60;92.40;;;;;;5056270;28;19925;-69
2023/02/15 07:01:55;;;;;;;;;;;29.20;93.10;;;;;;5061319;28;19969;-68
2023/02/15 07:04:21;;;;;;;;;;;29.90;92.70;;;;;;5059597;28;20352;-66
2023/02/15 07:06:48;;;;;;;;;;;30.80;92.10;;;;;;5059314;28;19970;-69
2023/02/15 07:09:14;;;;;;;;;;;31.50;91.70;;;;;;5056411;28;20431;-73
2023/02/15 07:14:25;;;;;;;;;;;32.00;90.80;;;;;;5057988;28;19918;-71
2023/02/15 07:16:52;;;;;;;;;;;31.50;90.50;;;;;;5060902;28;20019;-62
2023/02/15 07:19:18;;;;;;;;;;;31.50;91.30;;;;;;5052431;28;20303;-64
2023/02/15 07:21:45;;;;;;;;;;;31.70;90.30;;;;;;5060288;28;19913;-68
2023/02/15 07:24:11;;;;;;;;;;;32.10;90.50;;;;;;5058547;28;19919;-68
2023/02/15 07:26:38;;;;;;;;;;;32.30;90.00;;;;;;5061160;28;19934;-67
2023/02/15 07:29:04;;;;;;;;;;;32.40;90.00;;;;;;5039558;28;19912;-61
2023/02/15 07:31:31;;;;;;;;;;;32.90;89.50;;;;;;5058382;28;20003;-65
2023/02/15 07:33:57;;;;;;;;;;;32.60;87.50;;;;;;5043175;28;19913;-65
2023/02/15 07:36:24;;;;;;;;;;;32.70;88.20;;;;;;5053246;28;19919;-64
2023/02/15 07:38:50;;;;;;;;;;;32.50;88.70;;;;;;5060862;28;19931;-65
2023/02/15 07:41:16;;;;;;;;;;;32.50;89.40;;;;;;5060675;28;19933;-67
2023/02/15 07:43:44;;;;;;;;;;;32.50;87.40;;;;;;5049223;28;19966;-61
2023/02/15 07:46:12;;;;;;;;;;;32.40;88.40;;;;;;5065840;28;19986;-62
2023/02/15 07:48:39;;;;;;;;;;;32.70;87.90;;;;;;5059444;28;19912;-63
2023/02/15 07:51:07;;;;;;;;;;;32.30;87.20;;;;;;5061896;28;19916;-68
2023/02/15 07:53:33;;;;;;;;;;;32.20;88.40;;;;;;5063079;28;20569;-60
2023/02/15 07:56:01;;;;;;;;;;;32.30;87.70;;;;;;5046030;28;19909;-61
2023/02/15 08:01:12;;;;;;;;;;;31.70;87.90;;;;;;5060397;28;20434;-61
2023/02/15 08:03:39;;;;;;;;;;;31.60;88.00;;;;;;5061656;28;19924;-66
2023/02/15 08:06:05;;;;;;;;;;;31.20;88.30;;;;;;5064005;28;20354;-63
2023/02/15 08:08:33;;;;;;;;;;;30.90;87.80;;;;;;5056079;28;20386;-68
2023/02/15 08:11:25;;;;;;;;;;;30.30;88.70;;;;;;5058569;28;19974;-64
2023/02/15 08:13:55;;;;;;;;;;;30.10;90.00;;;;;;5063002;28;20346;-69
2023/02/15 08:16:25;;;;;;;;;;;29.70;90.00;;;;;;5058159;28;19916;-67
2023/02/15 08:18:52;;;;;;;;;;;29.40;90.00;;;;;;5061469;28;20021;-61
2023/02/15 08:21:19;;;;;;;;;;;29.20;90.00;;;;;;5059311;28;20494;-64
2023/02/15 08:23:45;;;;;;;;;;;28.60;90.20;;;;;;5062524;28;20367;-63
2023/02/15 08:26:12;;;;;;;;;;;28.00;90.80;;;;;;5059037;28;19916;-62
2023/02/15 08:28:38;;;;;;;;;;;27.30;91.20;;;;;;5059455;28;19951;-61
2023/02/15 08:31:08;;;;;;;;;;;26.70;92.00;;;;;;5058943;28;20607;-69
2023/02/15 08:33:36;;;;;;;;;;;26.40;92.40;;;;;;5060149;28;20331;-64
2023/02/15 08:36:06;;;;;;;;;;;26.10;92.70;;;;;;5059090;28;20356;-63
2023/02/15 08:38:32;;;;;;;;;;;25.90;93.10;;;;;;5059751;28;19918;-61
2023/02/15 08:41:09;;;;;;;;;;;25.70;93.40;;;;;;5057508;28;19912;-61
2023/02/15 08:43:35;;;;;;;;;;;25.60;93.60;;;;;;5057371;28;20428;-61
2023/02/15 08:46:01;;;;;;;;;;;25.40;93.80;;;;;;5061669;28;20214;-67
2023/02/15 08:48:28;;;;;;;;;;;25.10;94.20;;;;;;5060519;28;19923;-71
2023/02/15 08:50:54;;;;;;;;;;;25.00;94.20;;;;;;5060753;28;20296;-69
2023/02/15 08:53:21;;;;;;;;;;;24.80;94.20;;;;;;5061560;28;19931;-66
2023/02/15 08:55:55;;;;;;;;;;;24.50;94.70;;;;;;5061489;28;20389;-67
2023/02/15 08:58:21;;;;;;;;;;;24.30;95.10;;;;;;5058236;28;20034;-68
2023/02/15 09:00:47;;;;;;;;;;;24.20;95.50;;;;;;5062686;28;19912;-67
2023/02/15 09:03:14;;;;;;;;;;;24.10;95.50;;;;;;5061318;28;20403;-67
2023/02/15 09:05:40;;;;;;;;;;;24.00;95.80;;;;;;5060601;28;19912;-66
2023/02/15 09:08:06;;;;;;;;;;;23.80;95.90;;;;;;5059923;28;19927;-68
2023/02/15 09:10:33;;;;;;;;;;;23.70;96.10;;;;;;5061207;28;20018;-66
2023/02/15 09:12:59;;;;;;;;;;;23.50;96.60;;;;;;5059928;28;19924;-65
2023/02/15 09:15:25;;;;;;;;;;;23.40;96.80;;;;;;5058754;28;19913;-69
2023/02/15 09:17:52;;;;;;;;;;;23.30;97.40;;;;;;5058480;28;19922;-69
2023/02/15 09:20:18;;;;;;;;;;;23.20;97.30;;;;;;5060389;28;21010;-62
2023/02/15 09:22:45;;;;;;;;;;;23.30;97.30;;;;;;5059421;28;19930;-66
2023/02/15 09:25:13;;;;;;;;;;;23.10;97.60;;;;;;5059019;28;19920;-67
2023/02/15 09:27:40;;;;;;;;;;;23.00;97.90;;;;;;5060797;28;19912;-68
2023/02/15 09:30:07;;;;;;;;;;;22.90;98.50;;;;;;5061947;28;20276;-67
2023/02/15 09:32:33;;;;;;;;;;;22.80;98.70;;;;;;5060139;28;20359;-67
2023/02/15 09:35:00;;;;;;;;;;;22.70;99.00;;;;;;5056977;28;20063;-61
2023/02/15 09:37:26;;;;;;;;;;;22.70;99.30;;;;;;5060081;28;20291;-65
2023/02/15 09:39:53;;;;;;;;;;;22.60;99.50;;;;;;5060719;28;20309;-69
2023/02/15 09:42:41;;;;;;;;;;;22.50;99.90;;;;;;5058142;28;19974;-63
2023/02/15 09:45:07;;;;;;;;;;;22.40;99.90;;;;;;5059204;28;19916;-63
2023/02/15 09:47:52;;;;;;;;;;;22.30;99.90;;;;;;5058237;28;19942;-66
2023/02/15 09:50:36;;;;;;;;;;;22.30;99.90;;;;;;5055270;28;20352;-64
2023/02/15 09:53:09;;;;;;;;;;;22.30;99.90;;;;;;5060068;28;19913;-67
2023/02/15 09:55:54;;;;;;;;;;;22.20;99.90;;;;;;5058637;28;20378;-67
2023/02/15 09:58:21;;;;;;;;;;;22.20;99.90;;;;;;5065042;23;19921;-62
2023/02/15 10:01:05;;;;;;;;;;;22.30;99.90;;;;;;5052580;28;19916;-62
2023/02/15 10:03:50;;;;;;;;;;;22.20;99.90;;;;;;5049217;28;20282;-68
2023/02/15 10:06:32;;;;;;;;;;;22.20;99.90;;;;;;5045536;28;19920;-69
2023/02/15 10:09:16;;;;;;;;;;;22.20;99.90;;;;;;5055369;28;19926;-62
2023/02/15 10:12:01;;;;;;;;;;;22.00;99.90;;;;;;5044872;28;19916;-64
2023/02/15 10:14:28;;;;;;;;;;;22.00;99.90;;;;;;5047737;28;19915;-64
2023/02/15 10:16:55;;;;;;;;;;;22.00;99.90;;;;;;5047928;28;20473;-67
2023/02/15 10:19:28;;;;;;;;;;;22.00;99.90;;;;;;5054035;28;19916;-62
2023/02/15 10:21:54;;;;;;;;;;;21.90;99.90;;;;;;5032503;28;19913;-64
2023/02/15 10:24:29;;;;;;;;;;;21.90;99.90;;;;;;5036916;28;19919;-63
2023/02/15 10:26:59;;;;;;;;;;;21.80;99.90;;;;;;5040447;28;19970;-69
2023/02/15 10:29:38;;;;;;;;;;;21.60;99.90;;;;;;5038855;28;19955;-64
2023/02/15 10:32:24;;;;;;;;;;;21.50;99.90;;;;;;5099913;27;19936;-64
2023/02/15 10:34:53;;;;;;;;;;;21.40;99.90;;;;;;5100552;28;19916;-67
2023/02/15 10:37:30;;;;;;;;;;;21.30;99.90;;;;;;5098579;28;19916;-67
2023/02/15 10:39:56;;;;;;;;;;;21.30;99.90;;;;;;5097331;28;19999;-63
2023/02/15 10:42:28;;;;;;;;;;;21.30;99.90;;;;;;5095963;27;19966;-63
2023/02/15 10:44:55;;;;;;;;;;;21.20;99.90;;;;;;5097585;28;19919;-67
2023/02/15 10:47:23;;;;;;;;;;;21.20;99.90;;;;;;5104021;28;19992;-63
2023/02/15 10:49:53;;;;;;;;;;;21.20;99.90;;;;;;5098448;28;20048;-67
2023/02/15 10:52:19;;;;;;;;;;;21.20;99.90;;;;;;5098761;28;20462;-64
2023/02/15 10:55:03;;;;;;;;;;;21.20;99.90;;;;;;5099017;28;19912;-62
2023/02/15 10:57:29;;;;;;;;;;;21.10;99.90;;;;;;5105097;28;20384;-65
2023/02/15 10:59:59;;;;;;;;;;;21.00;99.90;;;;;;5090452;28;20295;-61
2023/02/15 11:02:37;;;;;;;;;;;20.90;99.90;;;;;;5098369;28;20312;-61
2023/02/15 11:05:21;;;;;;;;;;;20.90;99.90;;;;;;5102276;28;20169;-65
2023/02/15 11:07:49;;;;;;;;;;;20.90;99.90;;;;;;5099195;28;20429;-66
2023/02/15 11:10:34;;;;;;;;;;;21.00;99.90;;;;;;5102505;28;20227;-67
2023/02/15 11:13:05;;;;;;;;;;;21.00;99.90;;;;;;5099247;28;20181;-60
2023/02/15 11:15:38;;;;;;;;;;;20.90;99.90;;;;;;5102021;28;20046;-65
2023/02/15 11:18:11;;;;;;;;;;;20.80;99.90;;;;;;5095539;28;19916;-66
2023/02/15 11:20:42;;;;;;;;;;;20.80;99.90;;;;;;5098977;28;19920;-62
2023/02/15 11:23:15;;;;;;;;;;;20.60;99.90;;;;;;5100863;28;19916;-66
2023/02/15 11:25:44;;;;;;;;;;;20.60;99.90;;;;;;5098947;28;19916;-65
2023/02/15 11:28:19;;;;;;;;;;;20.60;99.90;;;;;;5099258;28;20457;-64
2023/02/15 11:30:48;;;;;;;;;;;20.60;99.90;;;;;;5099789;28;20011;-66
2023/02/15 11:33:22;;;;;;;;;;;20.60;99.90;;;;;;5101960;28;19923;-61
2023/02/15 11:35:51;;;;;;;;;;;20.60;99.90;;;;;;5107303;28;20030;-67
2023/02/15 11:38:26;;;;;;;;;;;20.40;99.90;;;;;;5131155;27;19951;-63
2023/02/15 11:40:57;;;;;;;;;;;20.40;99.90;;;;;;5103834;28;20347;-66
2023/02/15 11:43:28;;;;;;;;;;;20.30;99.90;;;;;;5092263;28;19920;-66
2023/02/15 11:45:55;;;;;;;;;;;20.20;99.90;;;;;;5092315;28;19919;-61
2023/02/15 11:48:21;;;;;;;;;;;20.10;99.90;;;;;;5090020;28;20342;-66
2023/02/15 11:50:48;;;;;;;;;;;20.00;99.90;;;;;;5088340;28;19919;-66
2023/02/15 11:53:21;;;;;;;;;;;20.00;99.90;;;;;;5096107;28;20363;-67
2023/02/15 11:55:48;;;;;;;;;;;19.90;99.90;;;;;;5092638;28;19927;-63
2023/02/15 11:58:14;;;;;;;;;;;19.90;99.90;;;;;;5091198;28;20028;-61
2023/02/15 12:00:42;;;;;;;;;;;19.90;99.90;;;;;;5091938;28;19916;-66
2023/02/15 12:03:38;;;;;;;;;;;19.90;99.90;;;;;;5096821;28;19982;-65
2023/02/15 12:06:05;;;;;;;;;;;19.80;99.90;;;;;;5060682;28;20343;-66
2023/02/15 12:08:43;;;;;;;;;;;19.80;99.90;;;;;;5075319;28;19920;-62
2023/02/15 12:11:14;;;;;;;;;;;19.70;99.90;;;;;;5076674;28;19960;-67
2023/02/15 12:13:54;;;;;;;;;;;19.70;99.90;;;;;;5079221;28;20402;-63
2023/02/15 12:16:20;;;;;;;;;;;19.60;99.90;;;;;;5076088;28;19923;-67
2023/02/15 12:18:47;;;;;;;;;;;19.60;99.90;;;;;;5075289;28;19958;-67
2023/02/15 12:21:13;;;;;;;;;;;19.60;99.90;;;;;;5074297;28;19946;-67
2023/02/15 12:23:51;;;;;;;;;;;19.70;99.90;;;;;;5074157;28;19923;-61
2023/02/15 12:26:27;;;;;;;;;;;19.70;99.90;;;;;;5071974;28;19916;-65
2023/02/15 12:28:57;;;;;;;;;;;19.60;99.90;;;;;;5072338;28;19920;-61
2023/02/15 12:31:30;;;;;;;;;;;19.70;99.90;;;;;;5072313;28;19928;-66
2023/02/15 12:34:01;;;;;;;;;;;19.60;99.90;;;;;;5066539;28;20630;-62
2023/02/15 12:36:32;;;;;;;;;;;19.50;99.90;;;;;;5071908;28;19916;-63
2023/02/15 12:39:08;;;;;;;;;;;19.40;99.90;;;;;;5072788;28;19912;-67
2023/02/15 12:41:34;;;;;;;;;;;19.30;99.90;;;;;;5079865;28;19920;-61
2023/02/15 12:44:05;;;;;;;;;;;19.30;99.90;;;;;;5091475;28;19920;-60
2023/02/15 12:46:32;;;;;;;;;;;19.30;99.90;;;;;;5093420;28;19958;-66
2023/02/15 12:49:20;;;;;;;;;;;19.30;99.90;;;;;;5089161;28;20209;-65
2023/02/15 12:51:46;;;;;;;;;;;19.30;99.90;;;;;;5093912;28;20072;-62
2023/02/15 12:54:22;;;;;;;;;;;19.30;99.90;;;;;;5091278;28;19916;-65
2023/02/15 12:56:48;;;;;;;;;;;19.20;99.90;;;;;;5089240;28;20011;-65
2023/02/15 12:59:15;;;;;;;;;;;19.20;99.90;;;;;;5092388;28;20324;-61
2023/02/15 13:01:42;;;;;;;;;;;19.20;99.90;;;;;;5092039;28;19958;-66
2023/02/15 13:04:21;;;;;;;;;;;19.20;99.90;;;;;;5089451;28;19950;-65
2023/02/15 13:06:51;;;;;;;;;;;19.10;99.90;;;;;;5092840;28;21439;-66
2023/02/15 13:09:17;;;;;;;;;;;19.00;99.90;;;;;;5091672;28;19916;-60
2023/02/15 13:11:44;;;;;;;;;;;19.00;99.90;;;;;;5093623;28;19928;-63
2023/02/15 13:14:18;;;;;;;;;;;19.00;99.90;;;;;;5095015;28;19916;-61
2023/02/15 13:16:46;;;;;;;;;;;19.00;99.90;;;;;;5092436;28;19988;-62
2023/02/15 13:19:20;;;;;;;;;;;19.00;99.90;;;;;;5091776;28;20003;-63
2023/02/15 13:21:48;;;;;;;;;;;18.90;99.90;;;;;;5092677;28;19915;-67
2023/02/15 13:24:15;;;;;;;;;;;18.80;99.90;;;;;;5095018;28;20363;-67
2023/02/15 13:26:44;;;;;;;;;;;18.80;99.90;;;;;;5092923;28;19923;-62
2023/02/15 13:29:29;;;;;;;;;;;18.70;99.90;;;;;;5095619;28;19934;-60
2023/02/15 13:31:57;;;;;;;;;;;18.80;99.90;;;;;;5088035;28;19924;-61
2023/02/15 13:34:31;;;;;;;;;;;18.90;99.90;;;;;;5090905;28;19920;-65
2023/02/15 13:37:04;;;;;;;;;;;18.80;99.90;;;;;;5092481;28;20329;-60
2023/02/15 13:39:34;;;;;;;;;;;18.80;99.90;;;;;;5090169;28;19959;-60
2023/02/15 13:42:12;;;;;;;;;;;18.80;99.90;;;;;;5093026;28;20505;-65
2023/02/15 13:45:08;;;;;;;;;;;18.80;99.90;;;;;;5092407;28;19919;-66
2023/02/15 13:47:49;;;;;;;;;;;18.90;99.90;;;;;;5050058;28;19956;-65
2023/02/15 13:50:16;;;;;;;;;;;18.80;99.90;;;;;;5049391;28;19928;-65
2023/02/15 13:52:46;;;;;;;;;;;18.90;99.90;;;;;;5047139;28;19913;-66
2023/02/15 13:55:15;;;;;;;;;;;18.90;99.90;;;;;;5028403;28;20353;-62
2023/02/15 13:58:05;;;;;;;;;;;18.80;99.90;;;;;;5043999;28;19928;-65
2023/02/15 14:00:36;;;;;;;;;;;18.80;99.90;;;;;;4971775;28;19918;-62
2023/02/15 14:03:21;;;;;;;;;;;18.80;99.90;;;;;;4971998;28;19918;-64
2023/02/15 14:06:00;;;;;;;;;;;18.90;99.90;;;;;;4968748;28;19914;-66
2023/02/15 14:08:29;;;;;;;;;;;18.70;99.90;;;;;;4965672;28;19915;-60
2023/02/15 14:11:14;;;;;;;;;;;18.70;99.90;;;;;;4968573;28;19922;-60
2023/02/15 14:13:45;;;;;;;;;;;18.60;99.90;;;;;;4777664;28;10000150;-67
2023/02/15 14:16:20;;;;;;;;;;;18.50;99.90;;;;;;4969992;28;20393;-66
2023/02/15 14:18:50;;;;;;;;;;;18.50;99.90;;;;;;4968670;28;19914;-66
2023/02/15 14:21:22;;;;;;;;;;;18.50;99.90;;;;;;4969342;28;19910;-62
2023/02/15 14:24:08;;;;;;;;;;;18.60;99.90;;;;;;4997409;28;19940;-61
2023/02/15 14:26:41;;;;;;;;;;;18.60;99.90;;;;;;5035443;28;19913;-61
2023/02/15 14:29:32;;;;;;;;;;;18.50;99.90;;;;;;5032227;28;20472;-62
2023/02/15 14:32:01;;;;;;;;;;;18.50;99.90;;;;;;5031410;28;19927;-62
2023/02/15 14:34:45;;;;;;;;;;;18.40;99.90;;;;;;5033380;28;20295;-65
2023/02/15 14:37:13;;;;;;;;;;;18.30;99.90;;;;;;5054359;28;19927;-65
2023/02/15 14:42:55;;;;;;;;;;;18.30;99.90;;;;;;5095149;28;19922;-61
2023/02/15 14:45:42;;;;;;;;;;;18.30;99.90;;;;;;5089230;28;19916;-65
2023/02/15 14:48:15;;;;;;;;;;;18.30;99.90;;;;;;5094308;28;19919;-61
2023/02/15 14:50:46;;;;;;;;;;;18.30;99.90;;;;;;5090026;28;19916;-66
2023/02/15 14:53:33;;;;;;;;;;;18.30;99.90;;;;;;5096618;28;19991;-61
2023/02/15 14:56:25;;;;;;;;;;;18.30;99.90;;;;;;5099746;28;19919;-66
2023/02/15 14:58:54;;;;;;;;;;;18.20;99.90;;;;;;5093961;28;20294;-67
2023/02/15 15:01:30;;;;;;;;;;;18.10;99.90;;;;;;5097474;28;19912;-61